GFA215 OBBI-OKKK
Flight info
| Callsign | GFA215 |
|---|---|
| Flight time | 0h 55m |
| Altitude | 26000 |
| Route | BHR A453 KUMBO/N0403F240 A453 DEBTI |
| Aircraft | A20N/M-SDE2E3FGHIRWXY/LB1 |
Departure
| Time | 2026-04-27 15:23 |
|---|---|
| Airport | Bahrain International Airport (OBBI) |
Arrival
| Time | 2026-04-27 16:18 |
|---|---|
| Airport | Kuwait International Airport (OKKK) |
| Time | Latitude | Longitude | Altitude | Speed | Heading |
|---|---|---|---|---|---|
| 2026-04-27 14:25 | 26.26545 | 50.63542 | 19 ft | 0 kts | 212° |
| 2026-04-27 15:08 | 26.26561 | 50.63553 | 21 ft | 3 kts | 212° |
| 2026-04-27 15:08 | 26.26576 | 50.63564 | 21 ft | 3 kts | 212° |
| 2026-04-27 15:08 | 26.26592 | 50.63575 | 20 ft | 3 kts | 212° |
| 2026-04-27 15:09 | 26.26607 | 50.63586 | 20 ft | 3 kts | 193° |
| 2026-04-27 15:09 | 26.26624 | 50.63582 | 21 ft | 3 kts | 124° |
| 2026-04-27 15:09 | 26.26625 | 50.63579 | 21 ft | 0 kts | 124° |
| 2026-04-27 15:16 | 26.26625 | 50.63580 | 21 ft | 1 kts | 124° |
| 2026-04-27 15:16 | 26.26601 | 50.63627 | 18 ft | 12 kts | 118° |
| 2026-04-27 15:16 | 26.26567 | 50.63723 | 18 ft | 13 kts | 85° |
| 2026-04-27 15:16 | 26.26632 | 50.63777 | 19 ft | 13 kts | 348° |
| 2026-04-27 15:17 | 26.26683 | 50.63705 | 17 ft | 12 kts | 302° |
| 2026-04-27 15:17 | 26.26730 | 50.63621 | 17 ft | 14 kts | 302° |
| 2026-04-27 15:17 | 26.26788 | 50.63519 | 15 ft | 17 kts | 302° |
| 2026-04-27 15:17 | 26.26852 | 50.63402 | 17 ft | 18 kts | 302° |
| 2026-04-27 15:18 | 26.26925 | 50.63282 | 16 ft | 20 kts | 304° |
| 2026-04-27 15:18 | 26.27003 | 50.63149 | 16 ft | 21 kts | 304° |
| 2026-04-27 15:18 | 26.27084 | 50.63011 | 18 ft | 22 kts | 303° |
| 2026-04-27 15:18 | 26.27172 | 50.62870 | 19 ft | 23 kts | 308° |
| 2026-04-27 15:19 | 26.27267 | 50.62717 | 20 ft | 25 kts | 301° |
| 2026-04-27 15:19 | 26.27359 | 50.62551 | 18 ft | 26 kts | 303° |
| 2026-04-27 15:19 | 26.27456 | 50.62378 | 18 ft | 27 kts | 302° |
| 2026-04-27 15:19 | 26.27563 | 50.62200 | 17 ft | 28 kts | 304° |
| 2026-04-27 15:20 | 26.27674 | 50.62016 | 17 ft | 29 kts | 302° |
| 2026-04-27 15:20 | 26.27766 | 50.61852 | 20 ft | 17 kts | 302° |
| 2026-04-27 15:20 | 26.27831 | 50.61734 | 18 ft | 18 kts | 302° |
| 2026-04-27 15:20 | 26.27928 | 50.61652 | 19 ft | 18 kts | 354° |
| 2026-04-27 15:21 | 26.28024 | 50.61713 | 20 ft | 17 kts | 77° |
| 2026-04-27 15:21 | 26.27978 | 50.61814 | 19 ft | 13 kts | 132° |
| 2026-04-27 15:21 | 26.27951 | 50.61861 | 19 ft | 0 kts | 122° |
| 2026-04-27 15:22 | 26.27948 | 50.61866 | 17 ft | 8 kts | 122° |
| 2026-04-27 15:22 | 26.27813 | 50.62101 | 19 ft | 74 kts | 122° |
| 2026-04-27 15:22 | 26.27389 | 50.62839 | 18 ft | 148 kts | 122° |
| 2026-04-27 15:22 | 26.26807 | 50.63856 | 606 ft | 152 kts | 122° |
| 2026-04-27 15:23 | 26.26261 | 50.64810 | 1398 ft | 140 kts | 122° |
| 2026-04-27 15:23 | 26.25739 | 50.65724 | 2093 ft | 141 kts | 121° |
| 2026-04-27 15:23 | 26.25218 | 50.66638 | 2873 ft | 139 kts | 122° |
| 2026-04-27 15:23 | 26.24706 | 50.67536 | 3861 ft | 135 kts | 124° |
| 2026-04-27 15:24 | 26.24316 | 50.68463 | 4746 ft | 137 kts | 98° |
| 2026-04-27 15:24 | 26.24360 | 50.69597 | 5402 ft | 162 kts | 82° |
| 2026-04-27 15:24 | 26.24590 | 50.71007 | 5765 ft | 201 kts | 78° |
| 2026-04-27 15:24 | 26.24897 | 50.72654 | 6019 ft | 233 kts | 78° |
| 2026-04-27 15:25 | 26.25258 | 50.74553 | 6217 ft | 266 kts | 78° |
| 2026-04-27 15:25 | 26.25657 | 50.76647 | 6491 ft | 286 kts | 78° |
| 2026-04-27 15:25 | 26.26079 | 50.78861 | 6953 ft | 295 kts | 78° |
| 2026-04-27 15:25 | 26.26507 | 50.81116 | 7506 ft | 300 kts | 78° |
| 2026-04-27 15:26 | 26.26940 | 50.83400 | 8094 ft | 303 kts | 78° |
| 2026-04-27 15:26 | 26.27376 | 50.85708 | 8704 ft | 307 kts | 78° |
| 2026-04-27 15:26 | 26.27811 | 50.88014 | 9317 ft | 310 kts | 77° |
| 2026-04-27 15:26 | 26.28249 | 50.90389 | 9878 ft | 314 kts | 78° |
| 2026-04-27 15:27 | 26.28689 | 50.92802 | 10288 ft | 324 kts | 78° |
| 2026-04-27 15:27 | 26.29145 | 50.95317 | 10479 ft | 338 kts | 78° |
| 2026-04-27 15:27 | 26.29617 | 50.97920 | 10728 ft | 347 kts | 78° |
| 2026-04-27 15:27 | 26.30124 | 51.00586 | 11082 ft | 359 kts | 74° |
| 2026-04-27 15:28 | 26.31075 | 51.03186 | 11860 ft | 366 kts | 58° |
| 2026-04-27 15:28 | 26.32704 | 51.05346 | 12810 ft | 365 kts | 36° |
| 2026-04-27 15:28 | 26.34934 | 51.06631 | 13763 ft | 360 kts | 12° |
| 2026-04-27 15:28 | 26.37379 | 51.06842 | 14386 ft | 354 kts | 349° |
| 2026-04-27 15:29 | 26.39684 | 51.05972 | 14717 ft | 347 kts | 326° |
| 2026-04-27 15:29 | 26.41484 | 51.04231 | 14805 ft | 343 kts | 309° |
| 2026-04-27 15:29 | 26.42911 | 51.02096 | 14810 ft | 343 kts | 301° |
| 2026-04-27 15:29 | 26.44158 | 50.99822 | 14809 ft | 343 kts | 298° |
| 2026-04-27 15:30 | 26.45351 | 50.97518 | 14807 ft | 342 kts | 298° |
| 2026-04-27 15:30 | 26.46556 | 50.95234 | 14812 ft | 342 kts | 299° |
| 2026-04-27 15:30 | 26.47798 | 50.92979 | 14812 ft | 341 kts | 300° |
| 2026-04-27 15:30 | 26.49079 | 50.90745 | 14811 ft | 342 kts | 301° |
| 2026-04-27 15:31 | 26.50387 | 50.88528 | 14809 ft | 342 kts | 301° |
| 2026-04-27 15:31 | 26.51712 | 50.86322 | 14865 ft | 344 kts | 302° |
| 2026-04-27 15:31 | 26.53067 | 50.84083 | 15463 ft | 351 kts | 302° |
| 2026-04-27 15:31 | 26.54430 | 50.81835 | 16548 ft | 350 kts | 302° |
| 2026-04-27 15:32 | 26.55798 | 50.79578 | 17578 ft | 352 kts | 301° |
| 2026-04-27 15:32 | 26.57177 | 50.77296 | 18495 ft | 356 kts | 301° |
| 2026-04-27 15:32 | 26.58565 | 50.74995 | 19338 ft | 359 kts | 300° |
| 2026-04-27 15:32 | 26.59958 | 50.72681 | 20206 ft | 362 kts | 300° |
| 2026-04-27 15:33 | 26.61375 | 50.70326 | 21064 ft | 365 kts | 300° |
| 2026-04-27 15:33 | 26.62797 | 50.67960 | 21910 ft | 369 kts | 300° |
| 2026-04-27 15:33 | 26.64237 | 50.65563 | 22732 ft | 373 kts | 299° |
| 2026-04-27 15:33 | 26.65689 | 50.63146 | 23512 ft | 376 kts | 299° |
| 2026-04-27 15:34 | 26.67151 | 50.60710 | 24156 ft | 379 kts | 299° |
| 2026-04-27 15:34 | 26.68622 | 50.58257 | 24778 ft | 383 kts | 298° |
| 2026-04-27 15:34 | 26.70113 | 50.55769 | 25363 ft | 386 kts | 298° |
| 2026-04-27 15:34 | 26.71611 | 50.53269 | 25713 ft | 387 kts | 298° |
| 2026-04-27 15:35 | 26.73108 | 50.50770 | 25809 ft | 388 kts | 298° |
| 2026-04-27 15:35 | 26.74616 | 50.48248 | 25811 ft | 389 kts | 298° |
| 2026-04-27 15:35 | 26.76122 | 50.45726 | 25812 ft | 391 kts | 298° |
| 2026-04-27 15:35 | 26.77636 | 50.43190 | 25809 ft | 392 kts | 298° |
| 2026-04-27 15:36 | 26.79149 | 50.40651 | 25805 ft | 393 kts | 298° |
| 2026-04-27 15:36 | 26.80694 | 50.38120 | 25809 ft | 396 kts | 301° |
| 2026-04-27 15:36 | 26.82506 | 50.35779 | 25811 ft | 400 kts | 307° |
| 2026-04-27 15:36 | 26.84453 | 50.33548 | 25810 ft | 402 kts | 309° |
| 2026-04-27 15:37 | 26.86434 | 50.31387 | 25805 ft | 403 kts | 310° |
| 2026-04-27 15:37 | 26.88488 | 50.29205 | 25808 ft | 403 kts | 310° |
| 2026-04-27 15:37 | 26.90510 | 50.27080 | 25808 ft | 403 kts | 310° |
| 2026-04-27 15:37 | 26.92585 | 50.24904 | 25812 ft | 402 kts | 310° |
| 2026-04-27 15:38 | 26.94623 | 50.22761 | 25807 ft | 401 kts | 310° |
| 2026-04-27 15:38 | 26.96649 | 50.20621 | 25807 ft | 401 kts | 310° |
| 2026-04-27 15:38 | 26.98676 | 50.18474 | 25803 ft | 401 kts | 310° |
| 2026-04-27 15:38 | 27.00697 | 50.16326 | 25808 ft | 402 kts | 310° |
| 2026-04-27 15:39 | 27.02731 | 50.14160 | 25800 ft | 403 kts | 310° |
| 2026-04-27 15:39 | 27.04695 | 50.11930 | 25802 ft | 400 kts | 306° |
| 2026-04-27 15:39 | 27.06556 | 50.09602 | 25802 ft | 399 kts | 305° |
| 2026-04-27 15:39 | 27.08355 | 50.07291 | 25817 ft | 399 kts | 305° |
| 2026-04-27 15:40 | 27.10177 | 50.04914 | 25802 ft | 395 kts | 304° |
| 2026-04-27 15:40 | 27.11930 | 50.02608 | 25801 ft | 393 kts | 304° |
| 2026-04-27 15:40 | 27.13698 | 50.00273 | 25802 ft | 392 kts | 304° |
| 2026-04-27 15:40 | 27.15462 | 49.97941 | 25802 ft | 392 kts | 304° |
| 2026-04-27 15:41 | 27.17224 | 49.95611 | 25800 ft | 392 kts | 304° |
| 2026-04-27 15:41 | 27.18995 | 49.93272 | 25802 ft | 394 kts | 304° |
| 2026-04-27 15:41 | 27.20768 | 49.90931 | 25801 ft | 394 kts | 304° |
| 2026-04-27 15:41 | 27.22549 | 49.88582 | 25801 ft | 395 kts | 304° |
| 2026-04-27 15:42 | 27.24327 | 49.86237 | 25798 ft | 395 kts | 304° |
| 2026-04-27 15:42 | 27.26109 | 49.83886 | 25799 ft | 395 kts | 304° |
| 2026-04-27 15:42 | 27.27892 | 49.81532 | 25799 ft | 395 kts | 304° |
| 2026-04-27 15:42 | 27.29673 | 49.79180 | 25799 ft | 395 kts | 304° |
| 2026-04-27 15:43 | 27.31452 | 49.76829 | 25796 ft | 395 kts | 304° |
| 2026-04-27 15:43 | 27.33232 | 49.74475 | 25788 ft | 395 kts | 304° |
| 2026-04-27 15:43 | 27.35011 | 49.72119 | 25796 ft | 396 kts | 304° |
| 2026-04-27 15:43 | 27.36799 | 49.69750 | 25796 ft | 397 kts | 304° |
| 2026-04-27 15:44 | 27.38580 | 49.67390 | 25796 ft | 397 kts | 304° |
| 2026-04-27 15:44 | 27.40371 | 49.65018 | 25811 ft | 397 kts | 304° |
| 2026-04-27 15:44 | 27.42156 | 49.62652 | 25799 ft | 395 kts | 304° |
| 2026-04-27 15:44 | 27.43935 | 49.60293 | 25793 ft | 395 kts | 304° |
| 2026-04-27 15:45 | 27.45712 | 49.57934 | 25793 ft | 394 kts | 304° |
| 2026-04-27 15:45 | 27.47522 | 49.55614 | 25796 ft | 397 kts | 308° |
| 2026-04-27 15:45 | 27.49577 | 49.53499 | 25797 ft | 401 kts | 312° |
| 2026-04-27 15:45 | 27.51712 | 49.51468 | 25785 ft | 403 kts | 314° |
| 2026-04-27 15:46 | 27.53885 | 49.49480 | 25791 ft | 404 kts | 315° |
| 2026-04-27 15:46 | 27.56087 | 49.47509 | 25790 ft | 405 kts | 315° |
| 2026-04-27 15:46 | 27.58312 | 49.45536 | 25792 ft | 405 kts | 315° |
| 2026-04-27 15:46 | 27.59771 | 49.44243 | 25794 ft | 404 kts | 315° |
| 2026-04-27 15:47 | 27.61981 | 49.42280 | 25788 ft | 404 kts | 315° |
| 2026-04-27 15:47 | 27.64182 | 49.40318 | 25790 ft | 404 kts | 314° |
| 2026-04-27 15:47 | 27.66386 | 49.38347 | 25790 ft | 403 kts | 314° |
| 2026-04-27 15:47 | 27.68581 | 49.36378 | 25794 ft | 403 kts | 314° |
| 2026-04-27 15:48 | 27.70775 | 49.34406 | 25790 ft | 403 kts | 314° |
| 2026-04-27 15:48 | 27.72964 | 49.32437 | 25790 ft | 403 kts | 314° |
| 2026-04-27 15:48 | 27.75157 | 49.30463 | 25800 ft | 403 kts | 314° |
| 2026-04-27 15:49 | 27.79537 | 49.26519 | 25793 ft | 402 kts | 314° |
| 2026-04-27 15:49 | 27.81726 | 49.24545 | 25791 ft | 402 kts | 314° |
| 2026-04-27 15:49 | 27.83905 | 49.22579 | 25788 ft | 402 kts | 314° |
| 2026-04-27 15:49 | 27.86100 | 49.20602 | 25789 ft | 403 kts | 315° |
| 2026-04-27 15:50 | 27.88463 | 49.18779 | 25620 ft | 418 kts | 320° |
| 2026-04-27 15:50 | 27.90922 | 49.17056 | 25396 ft | 414 kts | 322° |
| 2026-04-27 15:50 | 27.93400 | 49.15403 | 25161 ft | 411 kts | 322° |
| 2026-04-27 15:50 | 27.95871 | 49.13791 | 24931 ft | 410 kts | 323° |
| 2026-04-27 15:51 | 27.98338 | 49.12193 | 24700 ft | 408 kts | 323° |
| 2026-04-27 15:51 | 28.00798 | 49.10598 | 24472 ft | 407 kts | 323° |
| 2026-04-27 15:51 | 28.03251 | 49.09002 | 24248 ft | 406 kts | 323° |
| 2026-04-27 15:51 | 28.05687 | 49.07409 | 24014 ft | 404 kts | 323° |
| 2026-04-27 15:52 | 28.08113 | 49.05819 | 23795 ft | 402 kts | 323° |
| 2026-04-27 15:52 | 28.10526 | 49.04233 | 23585 ft | 400 kts | 323° |
| 2026-04-27 15:52 | 28.12931 | 49.02651 | 23359 ft | 398 kts | 323° |
| 2026-04-27 15:52 | 28.15321 | 49.01077 | 23097 ft | 397 kts | 323° |
| 2026-04-27 15:53 | 28.17705 | 48.99505 | 22834 ft | 395 kts | 323° |
| 2026-04-27 15:53 | 28.20077 | 48.97940 | 22579 ft | 394 kts | 323° |
| 2026-04-27 15:53 | 28.22439 | 48.96382 | 22319 ft | 393 kts | 323° |
| 2026-04-27 15:53 | 28.24798 | 48.94825 | 22062 ft | 391 kts | 323° |
| 2026-04-27 15:54 | 28.27146 | 48.93275 | 21811 ft | 390 kts | 323° |
| 2026-04-27 15:54 | 28.29490 | 48.91726 | 21574 ft | 389 kts | 324° |
| 2026-04-27 15:54 | 28.31831 | 48.90177 | 21318 ft | 389 kts | 324° |
| 2026-04-27 15:54 | 28.34164 | 48.88632 | 21062 ft | 388 kts | 324° |
| 2026-04-27 15:55 | 28.36500 | 48.87084 | 20823 ft | 392 kts | 324° |
| 2026-04-27 15:55 | 28.38868 | 48.85512 | 20582 ft | 396 kts | 324° |
| 2026-04-27 15:55 | 28.41250 | 48.83931 | 20335 ft | 396 kts | 324° |
| 2026-04-27 15:55 | 28.43616 | 48.82365 | 20085 ft | 386 kts | 325° |
| 2026-04-27 15:56 | 28.45892 | 48.80866 | 19876 ft | 370 kts | 325° |
| 2026-04-27 15:56 | 28.48071 | 48.79429 | 19647 ft | 357 kts | 325° |
| 2026-04-27 15:56 | 28.50210 | 48.78012 | 19417 ft | 355 kts | 325° |
| 2026-04-27 15:56 | 28.52336 | 48.76595 | 19188 ft | 355 kts | 325° |
| 2026-04-27 15:57 | 28.54450 | 48.75186 | 18952 ft | 347 kts | 325° |
| 2026-04-27 15:57 | 28.56426 | 48.73718 | 18723 ft | 331 kts | 317° |
| 2026-04-27 15:57 | 28.58074 | 48.71988 | 18505 ft | 315 kts | 308° |
| 2026-04-27 15:57 | 28.59461 | 48.70115 | 18285 ft | 306 kts | 304° |
| 2026-04-27 15:58 | 28.60768 | 48.68212 | 18054 ft | 304 kts | 304° |
| 2026-04-27 15:58 | 28.62052 | 48.66302 | 17797 ft | 305 kts | 303° |
| 2026-04-27 15:58 | 28.63321 | 48.64402 | 17550 ft | 304 kts | 303° |
| 2026-04-27 15:58 | 28.64611 | 48.62466 | 17359 ft | 302 kts | 303° |
| 2026-04-27 15:59 | 28.65862 | 48.60586 | 17236 ft | 302 kts | 303° |
| 2026-04-27 15:59 | 28.67127 | 48.58682 | 17110 ft | 301 kts | 303° |
| 2026-04-27 15:59 | 28.68393 | 48.56777 | 16981 ft | 301 kts | 303° |
| 2026-04-27 15:59 | 28.69655 | 48.54876 | 16821 ft | 301 kts | 303° |
| 2026-04-27 16:00 | 28.70914 | 48.52978 | 16569 ft | 300 kts | 303° |
| 2026-04-27 16:00 | 28.72174 | 48.51080 | 16310 ft | 300 kts | 304° |
| 2026-04-27 16:00 | 28.73559 | 48.49297 | 16070 ft | 303 kts | 315° |
| 2026-04-27 16:00 | 28.75298 | 48.47915 | 15820 ft | 306 kts | 326° |
| 2026-04-27 16:01 | 28.77161 | 48.46728 | 15585 ft | 307 kts | 328° |
| 2026-04-27 16:01 | 28.79034 | 48.45580 | 15339 ft | 306 kts | 328° |
| 2026-04-27 16:01 | 28.80912 | 48.44430 | 15101 ft | 305 kts | 328° |
| 2026-04-27 16:01 | 28.82777 | 48.43282 | 14859 ft | 304 kts | 328° |
| 2026-04-27 16:02 | 28.84636 | 48.42133 | 14624 ft | 303 kts | 328° |
| 2026-04-27 16:02 | 28.86479 | 48.40991 | 14390 ft | 302 kts | 328° |
| 2026-04-27 16:02 | 28.88323 | 48.39846 | 14158 ft | 301 kts | 328° |
| 2026-04-27 16:02 | 28.90161 | 48.38704 | 13919 ft | 301 kts | 328° |
| 2026-04-27 16:03 | 28.92000 | 48.37560 | 13696 ft | 301 kts | 328° |
| 2026-04-27 16:03 | 28.93837 | 48.36418 | 13451 ft | 300 kts | 328° |
| 2026-04-27 16:03 | 28.95668 | 48.35278 | 13192 ft | 300 kts | 328° |
| 2026-04-27 16:03 | 28.97498 | 48.34138 | 12935 ft | 299 kts | 328° |
| 2026-04-27 16:04 | 28.99324 | 48.33000 | 12790 ft | 299 kts | 328° |
| 2026-04-27 16:04 | 29.01149 | 48.31863 | 12723 ft | 299 kts | 328° |
| 2026-04-27 16:04 | 29.02956 | 48.30736 | 12476 ft | 292 kts | 328° |
| 2026-04-27 16:04 | 29.04719 | 48.29638 | 12221 ft | 285 kts | 328° |
| 2026-04-27 16:05 | 29.06457 | 48.28554 | 11984 ft | 284 kts | 328° |
| 2026-04-27 16:05 | 29.08190 | 48.27471 | 11789 ft | 284 kts | 328° |
| 2026-04-27 16:05 | 29.09910 | 48.26395 | 11650 ft | 284 kts | 328° |
| 2026-04-27 16:05 | 29.11657 | 48.25303 | 11450 ft | 283 kts | 328° |
| 2026-04-27 16:06 | 29.13385 | 48.24222 | 11173 ft | 284 kts | 329° |
| 2026-04-27 16:06 | 29.15113 | 48.23141 | 10907 ft | 285 kts | 329° |
| 2026-04-27 16:06 | 29.16854 | 48.22053 | 10441 ft | 286 kts | 328° |
| 2026-04-27 16:06 | 29.18588 | 48.20971 | 10066 ft | 284 kts | 328° |
| 2026-04-27 16:07 | 29.20312 | 48.19892 | 9705 ft | 281 kts | 328° |
| 2026-04-27 16:07 | 29.22021 | 48.18822 | 9326 ft | 279 kts | 328° |
| 2026-04-27 16:07 | 29.23720 | 48.17759 | 9041 ft | 273 kts | 327° |
| 2026-04-27 16:07 | 29.25354 | 48.16738 | 8902 ft | 262 kts | 327° |
| 2026-04-27 16:08 | 29.26918 | 48.15761 | 8777 ft | 251 kts | 327° |
| 2026-04-27 16:08 | 29.28432 | 48.14812 | 8565 ft | 246 kts | 327° |
| 2026-04-27 16:08 | 29.29926 | 48.13873 | 8243 ft | 246 kts | 328° |
| 2026-04-27 16:08 | 29.31452 | 48.12911 | 7716 ft | 255 kts | 328° |
| 2026-04-27 16:09 | 29.33028 | 48.11919 | 7273 ft | 260 kts | 328° |
| 2026-04-27 16:09 | 29.36192 | 48.09934 | 6536 ft | 261 kts | 328° |
| 2026-04-27 16:09 | 29.37799 | 48.08927 | 6167 ft | 260 kts | 327° |
| 2026-04-27 16:10 | 29.40945 | 48.06945 | 5496 ft | 256 kts | 325° |
| 2026-04-27 16:10 | 29.42887 | 48.03996 | 5035 ft | 222 kts | 270° |
| 2026-04-27 16:11 | 29.42700 | 48.02334 | 4938 ft | 202 kts | 248° |
| 2026-04-27 16:11 | 29.41816 | 47.99527 | 4755 ft | 178 kts | 244° |
| 2026-04-27 16:12 | 29.40932 | 47.96861 | 4339 ft | 177 kts | 244° |
| 2026-04-27 16:12 | 29.40492 | 47.95544 | 3861 ft | 177 kts | 243° |
| 2026-04-27 16:12 | 29.39608 | 47.92891 | 3070 ft | 180 kts | 244° |
| 2026-04-27 16:13 | 29.39152 | 47.91553 | 2991 ft | 180 kts | 241° |
| 2026-04-27 16:13 | 29.37258 | 47.90036 | 2923 ft | 170 kts | 195° |
| 2026-04-27 16:13 | 29.36112 | 47.89700 | 2725 ft | 171 kts | 194° |
| 2026-04-27 16:14 | 29.33801 | 47.89040 | 2310 ft | 171 kts | 193° |
| 2026-04-27 16:14 | 29.31469 | 47.89458 | 1910 ft | 178 kts | 156° |
| 2026-04-27 16:15 | 29.29385 | 47.90691 | 1479 ft | 153 kts | 155° |
| 2026-04-27 16:15 | 29.27620 | 47.91635 | 1118 ft | 130 kts | 155° |
| 2026-04-27 16:16 | 29.26065 | 47.92463 | 843 ft | 118 kts | 154° |
| 2026-04-27 16:16 | 29.24599 | 47.93245 | 574 ft | 116 kts | 153° |
| 2026-04-27 16:17 | 29.23135 | 47.94026 | 276 ft | 115 kts | 153° |
| 2026-04-27 16:17 | 29.21771 | 47.94760 | 171 ft | 93 kts | 156° |
| 2026-04-27 16:18 | 29.20937 | 47.95199 | 167 ft | 38 kts | 155° |
| 2026-04-27 16:18 | 29.20571 | 47.95516 | 173 ft | 30 kts | 123° |
| 2026-04-27 16:19 | 29.20581 | 47.95617 | 173 ft | 18 kts | 11° |
| 2026-04-27 16:19 | 29.20694 | 47.95570 | 175 ft | 16 kts | 324° |
| 2026-04-27 16:20 | 29.21046 | 47.95383 | 170 ft | 23 kts | 336° |
| 2026-04-27 16:20 | 29.21198 | 47.95306 | 169 ft | 24 kts | 337° |
| 2026-04-27 16:20 | 29.21522 | 47.95133 | 171 ft | 26 kts | 335° |
| 2026-04-27 16:21 | 29.21693 | 47.95041 | 170 ft | 28 kts | 335° |
| 2026-04-27 16:21 | 29.22059 | 47.95214 | 163 ft | 18 kts | 26° |
| 2026-04-27 16:22 | 29.22167 | 47.95215 | 163 ft | 16 kts | 15° |
| 2026-04-27 16:22 | 29.22336 | 47.95361 | 163 ft | 16 kts | 62° |
| 2026-04-27 16:22 | 29.22393 | 47.95476 | 163 ft | 17 kts | 59° |
| 2026-04-27 16:23 | 29.22460 | 47.95600 | 163 ft | 19 kts | 55° |
| 2026-04-27 16:23 | 29.22642 | 47.95920 | 163 ft | 29 kts | 59° |
| 2026-04-27 16:23 | 29.22744 | 47.96130 | 163 ft | 31 kts | 63° |
| 2026-04-27 16:24 | 29.22834 | 47.96347 | 163 ft | 27 kts | 56° |
| 2026-04-27 16:24 | 29.23122 | 47.96276 | 163 ft | 26 kts | 335° |
| 2026-04-27 16:25 | 29.23464 | 47.96092 | 163 ft | 29 kts | 335° |
| 2026-04-27 16:25 | 29.23846 | 47.95903 | 163 ft | 28 kts | 7° |
| 2026-04-27 16:26 | 29.23936 | 47.96229 | 163 ft | 21 kts | 141° |
| 2026-04-27 16:26 | 29.24037 | 47.96282 | 163 ft | 13 kts | 4° |
| 2026-04-27 16:27 | 29.24070 | 47.96388 | 167 ft | 7 kts | 146° |
| 2026-04-27 16:27 | 29.23771 | 47.96551 | 167 ft | 22 kts | 155° |
| 2026-04-27 16:28 | 29.23635 | 47.96832 | 168 ft | 22 kts | 62° |
| 2026-04-27 16:28 | 29.23800 | 47.97099 | 170 ft | 0 kts | 75° |
| 2026-04-27 16:29 | 29.23812 | 47.97152 | 170 ft | 0 kts | 86° |